EDDH METAR and TAF weather

Enter ICAO airport designator

Example: see airport list

Station Type Date Time Source
EDDH METAR 2016/06/28 03:20 UTC NOAA

EDDH 280320Z 24005KT 9999 FEW009 SCT060 BKN250 13/12 Q1017 NOSIG

Station Type Date Time Source
EDDH Decoded METAR 2016/06/28 03:20 UTC NOAA

Hamburg-Fuhlsbuettel, Germany (EDDH) 53-38N 010-00E 15M
Jun 27, 2016 - 11:20 PM EDT / 2016.06.28 0320 UTC
Wind: from the WSW (240 degrees) at 6 MPH (5 KT):0
Visibility: greater than 7 mile(s):0
Sky conditions: mostly cloudy
Temperature: 55 F (13 C)
Dew Point: 53 F (12 C)
Relative Humidity: 93%
Pressure (altimeter): 30.03 in. Hg (1017 hPa)
ob: EDDH 280320Z 24005KT 9999 FEW009 SCT060 BKN250 13/12 Q1017 NOSIG
cycle: 3

Station Type Date Time Source
EDDH TAF 2016/06/27 18:27 UTC NOAA

TAF EDDH 271700Z 2718/2824 23011KT 9999 SCT045
BECMG 2718/2720 25006KT
TEMPO 2718/2720 2500 RADZ BKN008
TEMPO 2720/2805 BKN008 PROB30
TEMPO 2720/2805 BKN004
BECMG 2816/2818 12006KT